Latest Weather Observations for Naracoorte

IDS60801

Issued at 2:35 pm CST Friday 25 April 2014 (issued every 30 minutes, with the page automatically refreshed every 10 minutes)

About weather observations | Map of weather stations | Latest weather observations for SA | Other Formats
Station Details ID: 026099 Name: NARACOORTE AERODROME Lat: -36.98 Lon: 140.73 Height: 49.72 m
Data from the previous 72 hours. | See also: Recent months at Naracoorte
Date/Time
CST
Temp
°C
App
Temp
°C
Dew
Point
Rel
Hum
%
Delta-T
°C
Wind Press
QNH
hPa
Press
MSL
hPa
Rain
since 9 am
mm
Dir
 
Spd
km/h
Gust
km/h
Spd
kts
Gust
kts
25/02:30pm 20.1 14.0 4.6 36 7.5 NNW 26 39 14 21 1012.7 - 0.0
25/02:00pm 20.6 14.5 4.6 35 7.8 NNW 26 35 14 19 1012.9 - 0.0
25/01:30pm 20.1 13.4 3.8 34 7.8 NNW 28 41 15 22 1013.5 - 0.0
25/01:00pm 20.0 13.8 4.1 35 7.6 NNW 26 35 14 19 1014.0 - 0.0
25/12:30pm 19.1 13.7 4.5 38 7.0 N 22 30 12 16 1014.6 - 0.0
25/12:00pm 18.4 13.0 4.6 40 6.6 N 22 28 12 15 1015.2 1015.3 0.0
25/11:30am 18.2 12.5 4.7 41 6.5 N 24 33 13 18 1016.0 - 0.0
25/11:00am 17.5 11.0 4.8 43 6.1 NNE 28 37 15 20 1016.2 - 0.0
25/10:30am 16.6 10.3 5.9 49 5.2 NE 28 35 15 19 1016.8 - 0.0
25/10:00am 15.0 8.4 6.0 55 4.3 NNE 30 35 16 19 1017.5 - 0.0
25/09:30am 13.5 6.4 5.4 58 3.8 NNE 32 43 17 23 1018.1 - 0.0
25/09:00am 11.9 4.9 6.2 68 2.7 NNE 32 41 17 22 1018.5 1018.5 0.0
25/08:30am 10.4 3.7 5.8 73 2.1 NE 30 39 16 21 1018.9 - 0.0
25/08:00am 9.2 2.9 5.8 79 1.6 NE 28 37 15 20 1019.1 - 0.0
25/07:30am 7.7 1.6 5.0 83 1.2 NE 26 32 14 17 1019.1 - 0.0
25/07:00am 6.5 1.1 4.5 87 0.9 NE 22 28 12 15 1018.9 - 0.0
25/06:30am 5.4 0.3 3.9 90 0.6 NE 20 24 11 13 1018.9 - 0.0
25/06:00am 5.1 -0.1 3.8 91 0.5 NE 20 24 11 13 1018.8 1018.8 0.0
25/05:30am 5.2 0.1 3.9 91 0.5 NE 20 26 11 14 1019.0 - 0.0
25/05:00am 5.4 -0.1 4.2 92 0.5 NE 22 26 12 14 1019.1 - 0.0
25/04:30am 5.5 0.6 4.3 92 0.5 NE 19 22 10 12 1019.2 - 0.0
25/04:00am 5.5 1.4 4.5 93 0.4 ENE 15 19 8 10 1019.2 - 0.0
25/03:30am 4.8 1.8 4.2 96 0.3 E 9 11 5 6 1019.3 - 0.0
25/03:00am 4.4 1.8 4.0 97 0.2 SE 7 9 4 5 1019.5 1019.5 0.0
25/02:30am 3.3 0.6 2.9 97 0.2 SE 6 7 3 4 1020.0 - 0.0
25/02:00am 3.5 0.8 2.6 94 0.4 SE 6 7 3 4 1020.1 - 0.0
25/01:30am 4.0 1.4 3.3 95 0.3 SSE 6 7 3 4 1020.3 - 0.0
25/01:00am 4.0 2.2 3.4 96 0.2 E 2 6 1 3 1020.2 - 0.0
25/12:30am 3.2 0.4 2.3 94 0.4 SE 6 7 3 4 1020.5 - 0.0
25/12:00am 5.1 3.1 4.2 94 0.4 SE 4 6 2 3 1020.5 1020.5 0.0
 
Date/Time
CST
Temp
°C
App
Temp
°C
Dew
Point
Rel
Hum
%
Delta-T
°C
Wind Press
QNH
hPa
Press
MSL
hPa
Rain
since 9 am
mm
Dir
 
Spd
km/h
Gust
km/h
Spd
kts
Gust
kts
24/11:30pm 3.6 0.9 2.7 94 0.4 E 6 7 3 4 1020.7 - 0.0
24/11:00pm 3.5 0.6 2.5 93 0.4 SSE 7 9 4 5 1020.7 - 0.0
24/10:30pm 4.8 2.2 3.1 89 0.7 SE 6 7 3 4 1021.0 - 0.0
24/10:00pm 5.5 2.0 3.7 88 0.8 SSE 11 11 6 6 1021.3 - 0.0
24/09:30pm 6.1 2.8 4.3 88 0.8 SSE 11 13 6 7 1021.3 - 0.0
24/09:00pm 7.1 3.8 4.8 85 1.0 SSE 11 13 6 7 1021.1 1021.1 0.0
24/08:30pm 7.8 4.0 5.6 86 1.0 SE 15 17 8 9 1021.0 - 0.0
24/08:00pm 6.4 3.1 4.7 89 0.7 SE 11 13 6 7 1020.7 - 0.0
24/07:30pm 7.4 3.9 5.4 87 0.9 S 13 15 7 8 1020.4 - 0.0
24/07:00pm 8.4 4.6 5.7 83 1.2 S 15 17 8 9 1020.3 - 0.0
24/06:30pm 9.7 5.6 6.2 79 1.6 S 17 19 9 10 1019.9 - 0.0
24/06:00pm 11.1 7.8 6.5 73 2.2 S 13 15 7 8 1019.6 1019.6 0.0
24/05:30pm 12.3 9.4 6.6 68 2.7 S 11 13 6 7 1019.3 - 0.0
24/05:00pm 15.0 11.7 6.3 56 4.2 S 13 17 7 9 1019.0 - 0.0
24/04:30pm 15.9 11.3 5.8 51 4.9 S 19 20 10 11 1018.7 - 0.0
24/04:00pm 17.4 13.4 4.7 43 6.1 SSE 15 20 8 11 1018.6 - 0.0
24/03:30pm 17.6 13.9 4.5 42 6.2 SSW 13 17 7 9 1018.5 - 0.0
24/03:00pm 17.5 13.6 3.4 39 6.5 SSW 13 28 7 15 1018.4 1018.4 0.0
24/02:30pm 17.7 13.0 5.0 43 6.1 S 19 26 10 14 1018.1 - 0.0
24/02:00pm 18.1 13.7 4.7 41 6.4 SSE 17 26 9 14 1018.0 - 0.0
24/01:30pm 17.3 13.7 4.9 44 5.9 SSE 13 32 7 17 1018.0 - 0.0
24/01:00pm 17.6 12.7 4.2 41 6.3 S 19 28 10 15 1018.3 - 0.0
24/12:30pm 17.1 13.3 3.8 41 6.2 S 13 20 7 11 1018.6 - 0.0
24/12:00pm 16.6 11.6 3.6 42 6.0 SSW 19 28 10 15 1018.7 1018.7 0.0
24/11:30am 17.1 12.2 5.1 45 5.8 S 20 32 11 17 1018.9 - 0.0
24/11:00am 16.3 11.5 5.6 49 5.2 S 20 32 11 17 1019.0 - 0.0
24/10:30am 15.4 10.3 5.9 53 4.6 S 22 33 12 18 1018.8 - 0.0
24/10:00am 15.3 9.7 7.3 59 4.0 S 26 32 14 17 1018.6 - 0.0
24/09:30am 15.3 9.1 7.8 61 3.8 S 30 37 16 20 1018.4 - 0.0
24/09:00am 14.2 9.0 7.3 63 3.4 S 24 32 13 17 1018.3 1018.3 1.4
24/08:30am 13.5 9.8 9.6 77 2.0 S 19 26 10 14 1018.0 - 1.4
24/08:00am 12.7 10.0 10.4 86 1.2 S 15 20 8 11 1017.3 - 1.4
24/07:30am 11.7 9.3 10.1 90 0.8 S 13 17 7 9 1016.7 - 1.4
24/07:00am 12.1 9.9 10.7 91 0.7 SSW 13 15 7 8 1016.2 - 1.4
24/06:30am 12.6 9.7 11.0 90 0.8 S 17 19 9 10 1015.5 - 1.4
24/06:00am 12.7 9.9 11.4 92 0.7 SSW 17 20 9 11 1015.1 1015.2 1.4
24/05:30am 12.9 8.1 11.5 91 0.7 S 28 37 15 20 1014.4 - 1.4
24/05:07am 13.4 7.9 12.6 95 0.4 SW 33 44 18 24 1013.8 - 1.4
24/05:00am 13.4 10.7 12.8 96 0.3 W 19 26 10 14 1013.7 - 1.2
24/04:30am 13.4 10.0 12.6 95 0.4 W 22 28 12 15 1013.1 - 1.2
24/04:00am 12.3 9.8 11.0 92 0.7 NNW 15 22 8 12 1012.4 - 0.0
24/03:30am 12.1 9.1 10.5 90 0.8 NNW 17 20 9 11 1012.2 - 0.0
24/03:00am 12.1 9.1 10.7 91 0.7 NNW 17 20 9 11 1012.3 1012.3 0.0
24/02:30am 11.6 8.5 10.2 91 0.7 NNW 17 22 9 12 1012.3 - 0.0
24/02:00am 11.4 8.2 9.8 90 0.8 NNW 17 20 9 11 1012.2 - 0.0
24/01:30am 12.3 9.6 10.5 89 0.9 NNW 15 20 8 11 1012.5 - 0.0
24/01:00am 12.8 9.8 10.7 87 1.1 NW 17 22 9 12 1012.7 - 0.0
24/12:30am 13.4 10.3 10.4 82 1.6 NNW 17 20 9 11 1012.8 - 0.0
24/12:00am 14.2 11.1 10.4 78 2.0 NW 17 20 9 11 1012.7 1012.7 0.0
 
Date/Time
CST
Temp
°C
App
Temp
°C
Dew
Point
Rel
Hum
%
Delta-T
°C
Wind Press
QNH
hPa
Press
MSL
hPa
Rain
since 9 am
mm
Dir
 
Spd
km/h
Gust
km/h
Spd
kts
Gust
kts
23/11:30pm 14.2 10.9 9.4 73 2.5 NNW 17 24 9 13 1012.8 - 0.0
23/11:00pm 13.8 10.3 8.6 71 2.6 NNW 17 22 9 12 1013.2 - 0.0
23/10:30pm 13.5 10.3 8.6 72 2.5 NNW 15 20 8 11 1013.3 - 0.0
23/10:00pm 13.3 10.1 8.4 72 2.4 NNW 15 20 8 11 1013.4 - 0.0
23/09:30pm 13.7 10.1 8.3 70 2.7 NNW 17 20 9 11 1013.6 - 0.0
23/09:00pm 13.4 10.5 8.0 70 2.7 NNW 13 17 7 9 1013.6 1013.6 0.0
23/08:30pm 13.5 10.1 7.5 67 2.9 N 15 17 8 9 1013.5 - 0.0
23/08:00pm 14.0 10.4 6.8 62 3.5 NNW 15 19 8 10 1013.8 - 0.0
23/07:30pm 12.8 9.5 6.6 66 3.0 N 13 17 7 9 1013.8 - 0.0
23/07:00pm 13.6 10.1 7.2 65 3.1 NW 15 17 8 9 1013.8 - 0.0
23/06:30pm 14.2 9.8 6.6 60 3.7 NW 19 22 10 12 1013.9 - 0.0
23/06:00pm 14.6 10.2 4.9 52 4.5 NW 17 24 9 13 1013.7 1013.7 0.0
23/05:30pm 15.6 10.6 3.7 45 5.5 NW 19 24 10 13 1013.5 - 0.0
23/05:00pm 17.2 11.4 4.5 43 6.0 WNW 24 32 13 17 1013.4 - 0.0
23/04:30pm 18.3 12.7 5.5 43 6.2 W 24 32 13 17 1013.3 - 0.0
23/04:00pm 18.6 13.6 6.4 45 6.1 W 22 28 12 15 1013.3 - 0.0
23/03:30pm 19.3 13.6 5.0 39 7.0 NW 24 33 13 18 1013.5 - 0.0
23/03:00pm 20.4 15.1 6.7 41 6.9 WNW 24 35 13 19 1013.6 1013.6 0.0
23/02:30pm 19.8 14.7 7.5 45 6.3 NW 24 35 13 19 1013.9 - 0.0
23/02:00pm 19.8 14.9 6.9 43 6.5 WNW 22 33 12 18 1014.2 - 0.0
23/01:30pm 19.6 14.7 8.3 48 5.9 NW 24 33 13 18 1014.6 - 0.0
23/01:00pm 19.1 14.9 8.4 50 5.6 NW 20 28 11 15 1015.0 - 0.0
23/12:30pm 18.7 14.5 8.4 51 5.3 WNW 20 28 11 15 1015.6 - 0.0
23/12:00pm 17.7 12.7 8.0 53 4.9 NW 24 33 13 18 1016.3 1016.4 0.0
23/11:30am 18.0 14.1 8.8 55 4.8 NNW 19 28 10 15 1016.7 - 0.0
23/11:00am 16.4 13.1 9.6 64 3.6 NNW 17 22 9 12 1017.0 - 0.0
23/10:30am 15.9 12.8 10.2 69 3.0 NNW 17 22 9 12 1017.4 - 0.0
23/10:00am 15.1 12.7 11.5 79 1.9 N 15 20 8 11 1017.7 - 0.0
23/09:30am 12.5 9.7 10.0 85 1.3 N 15 19 8 10 1018.2 - 0.0
23/09:00am 11.1 9.0 9.7 91 0.7 N 11 15 6 8 1018.5 1018.5 0.0
23/08:30am 9.1 6.2 8.0 93 0.5 N 13 15 7 8 1018.3 - 0.0
23/08:00am 8.1 5.4 7.3 95 0.4 N 11 15 6 8 1018.0 - 0.0
23/07:30am 6.9 4.4 6.5 97 0.2 NNE 9 11 5 6 1017.6 - 0.0
23/07:00am 5.8 3.1 5.7 99 0.0 N 9 13 5 7 1017.3 - 0.0
23/06:30am 5.0 3.9 4.9 99 0.0 CALM 0 0 0 0 1017.1 - 0.0
23/06:00am 4.3 3.0 4.2 99 0.0 CALM 0 0 0 0 1017.4 1017.5 0.0
23/05:30am 3.9 2.5 3.6 98 0.1 CALM 0 0 0 0 1017.7 - 0.0
23/05:00am 4.8 3.6 4.5 98 0.1 CALM 0 0 0 0 1017.4 - 0.0
23/04:30am 5.5 4.4 5.2 98 0.1 CALM 0 0 0 0 1017.1 - 0.0
23/04:00am 4.7 3.4 4.3 97 0.2 CALM 0 0 0 0 1016.9 - 0.0
23/03:30am 5.7 4.6 5.3 97 0.2 CALM 0 0 0 0 1017.0 - 0.0
23/03:00am 6.6 4.0 6.2 97 0.2 N 9 11 5 6 1016.8 1016.9 0.0
23/02:30am 6.8 4.6 6.4 97 0.2 N 7 11 4 6 1017.3 - 0.0
23/02:00am 5.5 4.4 5.1 97 0.2 CALM 0 7 0 4 1017.6 - 0.0
23/01:30am 5.7 4.6 5.3 97 0.2 CALM 0 0 0 0 1017.9 - 0.0
23/01:00am 5.5 4.4 5.1 97 0.2 CALM 0 0 0 0 1017.9 - 0.0
23/12:30am 6.0 5.0 5.6 97 0.2 CALM 0 0 0 0 1018.0 - 0.0
23/12:00am 6.5 4.5 6.1 97 0.2 N 6 7 3 4 1018.3 1018.3 0.0
 
Date/Time
CST
Temp
°C
App
Temp
°C
Dew
Point
Rel
Hum
%
Delta-T
°C
Wind Press
QNH
hPa
Press
MSL
hPa
Rain
since 9 am
mm
Dir
 
Spd
km/h
Gust
km/h
Spd
kts
Gust
kts
22/11:30pm 6.5 5.6 5.9 96 0.3 CALM 0 0 0 0 1018.5 - 0.0
22/11:00pm 6.5 5.5 5.6 94 0.4 CALM 0 0 0 0 1018.7 - 0.0
22/10:30pm 8.1 7.5 7.3 95 0.4 CALM 0 0 0 0 1019.0 - 0.0
22/10:00pm 7.8 7.1 6.9 94 0.4 CALM 0 0 0 0 1019.0 - 0.0
22/09:30pm 8.1 7.4 7.0 93 0.5 CALM 0 0 0 0 1019.0 - 0.0
22/09:00pm 8.5 7.1 7.1 91 0.7 SE 4 6 2 3 1018.9 1018.9 0.0
22/08:30pm 8.7 7.8 7.6 93 0.5 SW 2 7 1 4 1018.8 - 0.0
22/08:00pm 9.0 7.3 7.5 90 0.7 S 6 7 3 4 1018.7 - 0.0
22/07:30pm 9.4 7.4 7.3 87 1.0 SSW 7 9 4 5 1018.5 - 0.0
22/07:00pm 10.1 7.9 8.0 87 1.0 SSW 9 11 5 6 1018.2 - 0.0
22/06:30pm 11.0 7.4 8.2 83 1.4 SW 17 17 9 9 1017.7 - 0.0
22/06:00pm 12.2 8.5 7.9 75 2.1 SW 17 19 9 10 1017.3 1017.4 0.0
22/05:30pm 14.2 10.0 7.5 64 3.3 SW 19 20 10 11 1016.9 - 0.0
22/05:00pm 16.2 11.7 6.9 54 4.6 SSW 20 28 11 15 1016.6 - 0.0
22/04:30pm 17.3 11.9 7.9 54 4.8 SSW 26 32 14 17 1016.3 - 0.0
22/04:00pm 18.7 13.3 7.8 49 5.6 SW 26 33 14 18 1016.1 - 0.0
22/03:30pm 19.2 13.9 7.0 45 6.2 SSW 24 32 13 17 1015.9 - 0.0
22/03:00pm 19.7 15.7 8.1 47 6.0 WSW 19 26 10 14 1015.7 1015.8 0.0

Other Formats:

Comma delimited format used in spreadsheet applications
http://www.bom.gov.au/fwo/IDS60801/IDS60801.94820.axf

JavaScript Object Notation format (JSON) in row-major order
http://www.bom.gov.au/fwo/IDS60801/IDS60801.94820.json